Check out our new BloomSky Weather System.

Active alerts


No alerts


Thunder radar  blitzortung!


Rain radar more information rain snow radar


Visit our other weather sites:

Template documentation
and downloads

And another site



Weather Underground History page Text

Daily Summary for February 11, 2018 Units:  Metric    English   Both
« Previous Day
Next Day »
Daily Weekly Monthly Yearly Custom
  High: Low: Average:
Temperature: -17.8 °C 2.6 °C 4.1 °C
Dew Point: -17.8 °C 0 °C 2.3 °C
Humidity: Humidity % 77 % 89 %
Wind Speed: 0 km/h 0 km/h 7.6 km/h
Wind Gust: 0 km/h - -
Wind:- - WNW
Pressure: 0 hPa 1012.4 hPa -
Precipitation: 0 mm    
Historical Graphs
 
 
Tabular Data for February 11, 2018
Time Temperature Dew Point Pressure Wind Wind Speed Wind Gust Humidity Rainfall Rate (Hourly)
-17.8 °C -17.8 °C 0 hPa Calm     Humidity % 0 mm
00:00 7.3 °C 7 °C 1012.8 hPa NW 6.4 km/h 12.9 km/h 98 % 0 mm
00:05 7.3 °C 7 °C 1012.8 hPa NNW 3.2 km/h 9.7 km/h 98 % 0 mm
00:10 7.3 °C 7 °C 1012.4 hPa NNW 8 km/h 12.9 km/h 98 % 0 mm
00:15 7.2 °C 6.9 °C 1012.8 hPa NW 8 km/h 12.9 km/h 98 % 0 mm
00:20 7.2 °C 6.9 °C 1012.8 hPa NW 6.4 km/h 12.9 km/h 98 % 0 mm
00:25 7.1 °C 6.8 °C 1012.8 hPa NW 4.8 km/h 12.9 km/h 98 % 0 mm
00:30 7.1 °C 6.8 °C 1012.8 hPa NNW 6.4 km/h 11.3 km/h 98 % 0 mm
00:35 6.9 °C 6.6 °C 1012.8 hPa NNW 4.8 km/h 11.3 km/h 98 % 0 mm
00:40 6.9 °C 6.6 °C 1012.8 hPa NNW 8 km/h 11.3 km/h 98 % 0 mm
00:45 6.7 °C 6.4 °C 1012.8 hPa NNW 4.8 km/h 14.5 km/h 98 % 0 mm
00:50 6.7 °C 6.4 °C 1012.8 hPa NNW 3.2 km/h 14.5 km/h 98 % 0 mm
00:55 6.7 °C 6.4 °C 1012.8 hPa NW 4.8 km/h 14.5 km/h 98 % 0 mm
01:00 6.7 °C 6.4 °C 1012.8 hPa NNW 6.4 km/h 12.9 km/h 98 % 0 mm
01:05 6.6 °C 6.3 °C 1012.8 hPa NW 8 km/h 12.9 km/h 98 % 0 mm
01:10 6.6 °C 6.3 °C 1013.1 hPa NW 1.6 km/h 11.3 km/h 98 % 0 mm
01:15 6.6 °C 6.5 °C 1013.1 hPa NW 3.2 km/h 11.3 km/h 99 % 0 mm
01:20 6.7 °C 6.6 °C 1013.1 hPa NNW 6.4 km/h 8 km/h 99 % 0 mm
01:25 6.7 °C 6.6 °C 1013.1 hPa NNE 8 km/h 9.7 km/h 99 % 0 mm
01:30 6.6 °C 6.5 °C 1013.1 hPa NW 4.8 km/h 9.7 km/h 99 % 0 mm
01:35 6.6 °C 6.5 °C 1013.1 hPa NW 8 km/h 9.7 km/h 99 % 0 mm
01:40 6.6 °C 6.5 °C 1013.1 hPa NW 4.8 km/h 9.7 km/h 99 % 0 mm
01:45 6.6 °C 6.5 °C 1013.1 hPa WNW 4.8 km/h 9.7 km/h 99 % 0 mm
01:50 6.6 °C 6.5 °C 1013.1 hPa NW 3.2 km/h 9.7 km/h 99 % 0 mm
01:55 6.6 °C 6.5 °C 1013.1 hPa NW 6.4 km/h 9.7 km/h 99 % 0 mm
02:00 6.5 °C 6.4 °C 1013.1 hPa NNW 1.6 km/h 9.7 km/h 99 % 0 mm
02:05 6.5 °C 6.4 °C 1013.1 hPa NNW 4.8 km/h 8 km/h 99 % 0 mm
02:10 6.5 °C 6.4 °C 1013.1 hPa NNW 4.8 km/h 9.7 km/h 99 % 0 mm
02:15 6.5 °C 6.4 °C 1013.1 hPa NW 8 km/h 9.7 km/h 99 % 0 mm
02:20 6.4 °C 6.3 °C 1013.1 hPa NNW 1.6 km/h 9.7 km/h 99 % 0 mm
02:25 6.4 °C 6.3 °C 1013.1 hPa NNW 8 km/h 11.3 km/h 99 % 0 mm
02:30 6.3 °C 6.2 °C 1013.1 hPa WNW 6.4 km/h 12.9 km/h 99 % 0 mm
02:35 6.3 °C 6.2 °C 1013.1 hPa NW 3.2 km/h 12.9 km/h 99 % 0 mm
02:40 6.3 °C 6.2 °C 1013.1 hPa NNE 6.4 km/h 12.9 km/h 99 % 0 mm
02:45 6.2 °C 6.1 °C 1013.1 hPa NNW 8 km/h 12.9 km/h 99 % 0 mm
02:50 6.2 °C 6.1 °C 1013.4 hPa WNW 12.9 km/h 12.9 km/h 99 % 0 mm
02:55 6.1 °C 6 °C 1013.4 hPa NW 4.8 km/h 16.1 km/h 99 % 0 mm
03:00 6.2 °C 6.1 °C 1013.8 hPa WNW 4.8 km/h 16.1 km/h 99 % 0 mm
03:05 6.1 °C 6 °C 1013.8 hPa NW 4.8 km/h 16.1 km/h 99 % 0 mm
03:10 6 °C 5.9 °C 1013.8 hPa NNW 12.9 km/h 12.9 km/h 99 % 0 mm
03:15 5.9 °C 5.8 °C 1013.8 hPa NW 8 km/h 14.5 km/h 99 % 0 mm
03:20 5.9 °C 5.8 °C 1013.8 hPa WNW 6.4 km/h 19.3 km/h 99 % 0 mm
03:25 5.8 °C 5.7 °C 1013.8 hPa NW 6.4 km/h 19.3 km/h 99 % 0 mm
03:30 5.8 °C 5.7 °C 1013.8 hPa NNW 4.8 km/h 19.3 km/h 99 % 0 mm
03:35 5.8 °C 5.7 °C 1013.8 hPa NW 9.7 km/h 16.1 km/h 99 % 0 mm
03:40 5.8 °C 5.7 °C 1013.4 hPa NW 4.8 km/h 16.1 km/h 99 % 0 mm
03:45 5.8 °C 5.7 °C 1013.4 hPa NNW 8 km/h 16.1 km/h 99 % 0 mm
03:50 5.7 °C 5.6 °C 1013.8 hPa NNW 8 km/h 16.1 km/h 99 % 0 mm
03:55 5.7 °C 5.6 °C 1013.8 hPa NNW 4.8 km/h 16.1 km/h 99 % 0 mm
04:00 5.7 °C 5.6 °C 1013.8 hPa NNW 6.4 km/h 16.1 km/h 99 % 0 mm
04:05 5.6 °C 5.5 °C 1013.8 hPa NW 8 km/h 16.1 km/h 99 % 0 mm
04:10 5.6 °C 5.3 °C 1013.8 hPa NW 9.7 km/h 16.1 km/h 98 % 0 mm
04:15 5.4 °C 5.1 °C 1013.4 hPa WNW 6.4 km/h 19.3 km/h 98 % 0 mm
04:20 5.3 °C 5 °C 1013.8 hPa NNW 6.4 km/h 19.3 km/h 98 % 0 mm
04:25 5.3 °C 5 °C 1014.1 hPa NNW 9.7 km/h 19.3 km/h 98 % 0 mm
04:31 5.2 °C 5.1 °C 1014.1 hPa North 6.4 km/h 16.1 km/h 99 % 0 mm
04:36 5.2 °C 5.1 °C 1014.4 hPa North 4.8 km/h 16.1 km/h 99 % 0 mm
04:41 5.1 °C 5 °C 1014.4 hPa WNW 3.2 km/h 14.5 km/h 99 % 0 mm
04:46 5.1 °C 4.8 °C 1014.4 hPa NNW 8 km/h 16.1 km/h 98 % 0 mm
04:51 4.8 °C 4.5 °C 1014.4 hPa West 6.4 km/h 17.7 km/h 98 % 0 mm
04:56 4.7 °C 4.4 °C 1014.4 hPa NNW 6.4 km/h 17.7 km/h 98 % 0 mm
05:01 4.6 °C 4.3 °C 1014.4 hPa WNW 9.7 km/h 24.1 km/h 98 % 0 mm
05:06 4.4 °C 4.1 °C 1014.4 hPa WNW 8 km/h 24.1 km/h 98 % 0 mm
05:11 4.4 °C 4.1 °C 1014.4 hPa NW 8 km/h 24.1 km/h 98 % 0 mm
05:16 4.4 °C 4.1 °C 1014.4 hPa NW 8 km/h 19.3 km/h 98 % 0 mm
05:21 4.4 °C 4.1 °C 1014.4 hPa NNW 3.2 km/h 19.3 km/h 98 % 0 mm
05:26 4.4 °C 4.1 °C 1014.4 hPa North 6.4 km/h 16.1 km/h 98 % 0 mm
05:31 4.4 °C 4.1 °C 1014.4 hPa NW 11.3 km/h 16.1 km/h 98 % 0 mm
05:36 4.3 °C 3.9 °C 1014.4 hPa WNW 4.8 km/h 17.7 km/h 97 % 0 mm
05:41 4.3 °C 3.9 °C 1014.8 hPa WNW 9.7 km/h 17.7 km/h 97 % 0 mm
05:46 4.2 °C 3.8 °C 1014.8 hPa NW 11.3 km/h 17.7 km/h 97 % 0 mm
05:51 4.2 °C 3.8 °C 1014.8 hPa NNE 12.9 km/h 20.9 km/h 97 % 0 mm
05:56 4.2 °C 3.8 °C 1014.8 hPa WNW 9.7 km/h 20.9 km/h 97 % 0 mm
06:01 4.2 °C 3.8 °C 1014.8 hPa NW 3.2 km/h 20.9 km/h 97 % 0 mm
06:06 4.2 °C 3.8 °C 1014.8 hPa NNW 8 km/h 20.9 km/h 97 % 0 mm
06:11 4.2 °C 3.8 °C 1014.8 hPa NW 6.4 km/h 20.9 km/h 97 % 0 mm
06:16 4.2 °C 3.8 °C 1015.1 hPa North 11.3 km/h 20.9 km/h 97 % 0 mm
06:21 4.2 °C 3.8 °C 1015.1 hPa NNW 11.3 km/h 20.9 km/h 97 % 0 mm
06:26 4.2 °C 3.8 °C 1015.1 hPa NNW 11.3 km/h 16.1 km/h 97 % 0 mm
06:31 4.2 °C 3.8 °C 1015.5 hPa NW 6.4 km/h 16.1 km/h 97 % 0 mm
06:36 4.2 °C 3.8 °C 1015.5 hPa WNW 6.4 km/h 16.1 km/h 97 % 0 mm
06:41 4.2 °C 3.8 °C 1015.8 hPa North 14.5 km/h 16.1 km/h 97 % 0 mm
06:46 4.1 °C 3.5 °C 1015.8 hPa NNW 6.4 km/h 20.9 km/h 96 % 0 mm
06:51 4.1 °C 3.7 °C 1015.8 hPa NNW 4.8 km/h 20.9 km/h 97 % 0 mm
06:56 4.1 °C 3.5 °C 1016.1 hPa NW 11.3 km/h 20.9 km/h 96 % 0 mm
07:01 4 °C 3.4 °C 1016.1 hPa NW 6.4 km/h 16.1 km/h 96 % 0 mm
07:06 3.9 °C 3.3 °C 1015.8 hPa NW 11.3 km/h 19.3 km/h 96 % 0 mm
07:11 3.9 °C 3.3 °C 1016.1 hPa NNW 14.5 km/h 20.9 km/h 96 % 0 mm
07:16 3.9 °C 3.3 °C 1016.1 hPa NNW 3.2 km/h 20.9 km/h 96 % 0 mm
07:21 3.9 °C 3.3 °C 1016.5 hPa NNW 9.7 km/h 20.9 km/h 96 % 0 mm
07:26 3.8 °C 3.1 °C 1016.5 hPa NW 6.4 km/h 20.9 km/h 95 % 0 mm
07:31 3.8 °C 3.1 °C 1016.8 hPa NNE 4.8 km/h 19.3 km/h 95 % 0 mm
07:36 3.8 °C 3.1 °C 1016.5 hPa NNW 12.9 km/h 19.3 km/h 95 % 0 mm
07:41 3.7 °C 2.8 °C 1016.8 hPa NNW 6.4 km/h 22.5 km/h 94 % 0 mm
07:46 3.8 °C 2.9 °C 1017.2 hPa NW 8 km/h 22.5 km/h 94 % 0 mm
07:51 3.7 °C 2.8 °C 1017.2 hPa NNW 8 km/h 22.5 km/h 94 % 0 mm
07:56 3.7 °C 2.8 °C 1017.2 hPa WNW 6.4 km/h 17.7 km/h 94 % 0 mm
08:01 3.7 °C 2.8 °C 1017.2 hPa NW 11.3 km/h 17.7 km/h 94 % 0 mm
08:06 3.7 °C 2.8 °C 1017.5 hPa NW 4.8 km/h 17.7 km/h 94 % 0 mm
08:11 3.7 °C 2.7 °C 1017.5 hPa NNW 11.3 km/h 19.3 km/h 93 % 0 mm
08:16 3.6 °C 2.6 °C 1017.5 hPa North 4.8 km/h 19.3 km/h 93 % 0 mm
08:21 3.6 °C 2.6 °C 1017.8 hPa NNE 9.7 km/h 19.3 km/h 93 % 0 mm
08:26 3.6 °C 2.6 °C 1017.8 hPa NW 14.5 km/h 17.7 km/h 93 % 0 mm
08:31 3.6 °C 2.6 °C 1017.8 hPa NNW 3.2 km/h 20.9 km/h 93 % 0 mm
08:36 3.6 °C 2.6 °C 1017.8 hPa NW 1.6 km/h 20.9 km/h 93 % 0 mm
08:41 3.6 °C 2.6 °C 1017.8 hPa NW 9.7 km/h 20.9 km/h 93 % 0 mm
08:46 3.6 °C 2.4 °C 1018.2 hPa NW 17.7 km/h 24.1 km/h 92 % 0 mm
08:51 3.5 °C 2.5 °C 1018.2 hPa NNW 3.2 km/h 25.7 km/h 93 % 0 mm
08:56 3.4 °C 2.4 °C 1018.2 hPa NNW 12.9 km/h 25.7 km/h 93 % 0 mm
09:01 3.5 °C 2.5 °C 1018.2 hPa NW 8 km/h 25.7 km/h 93 % 0 mm
09:06 3.5 °C 2.5 °C 1018.5 hPa NW 11.3 km/h 22.5 km/h 93 % 0 mm
09:11 3.4 °C 2.2 °C 1018.8 hPa NW 12.9 km/h 22.5 km/h 92 % 0 mm
09:16 3.4 °C 2.1 °C 1018.8 hPa NNW 12.9 km/h 22.5 km/h 91 % 0 mm
09:21 3.5 °C 2.2 °C 1018.8 hPa NW 9.7 km/h 22.5 km/h 91 % 0 mm
09:26 3.5 °C 2.2 °C 1018.8 hPa NW 6.4 km/h 22.5 km/h 91 % 0 mm
09:31 3.5 °C 2.2 °C 1018.8 hPa NW 1.6 km/h 22.5 km/h 91 % 0 mm
09:36 3.6 °C 2.3 °C 1018.8 hPa NE 3.2 km/h 22.5 km/h 91 % 0 mm
09:41 3.7 °C 2.4 °C 1018.8 hPa NNW 4.8 km/h 22.5 km/h 91 % 0 mm
09:46 3.7 °C 2.2 °C 1018.8 hPa North 9.7 km/h 19.3 km/h 90 % 0 mm
09:51 3.7 °C 2.2 °C 1018.8 hPa NNW 8 km/h 19.3 km/h 90 % 0 mm
09:56 3.7 °C 2.2 °C 1018.8 hPa NW 6.4 km/h 22.5 km/h 90 % 0 mm
10:01 3.8 °C 2.5 °C 1018.8 hPa WNW 9.7 km/h 22.5 km/h 91 % 0 mm
10:06 3.7 °C 2.2 °C 1018.8 hPa NW 12.9 km/h 24.1 km/h 90 % 0 mm
10:11 3.7 °C 2.4 °C 1019.2 hPa West 1.6 km/h 24.1 km/h 91 % 0 mm
10:16 3.8 °C 2.5 °C 1019.5 hPa WNW 8 km/h 24.1 km/h 91 % 0 mm
10:21 3.6 °C 2.3 °C 1019.5 hPa NW 1.6 km/h 24.1 km/h 91 % 0 mm
10:23 3.7 °C 2.4 °C 1019.5 hPa NNW 8 km/h 24.1 km/h 91 % 0 mm
10:28 3.6 °C 2.4 °C 1019.5 hPa NNW 3.2 km/h 20.9 km/h 92 % 0 mm
10:33 3.6 °C 2.4 °C 1019.5 hPa NW 4.8 km/h 20.9 km/h 92 % 0 mm
10:38 3.6 °C 2.4 °C 1019.5 hPa North 8 km/h 16.1 km/h 92 % 0 mm
10:43 3.4 °C 2.2 °C 1019.5 hPa NW 4.8 km/h 17.7 km/h 92 % 0 mm
10:48 3.3 °C 2.3 °C 1019.5 hPa NW 8 km/h 19.3 km/h 93 % 0 mm
10:53 3.3 °C 2.3 °C 1019.5 hPa NNW 6.4 km/h 19.3 km/h 93 % 0 mm
10:58 3.3 °C 2.1 °C 1019.9 hPa NW 8 km/h 19.3 km/h 92 % 0 mm
11:03 3.4 °C 2.2 °C 1019.9 hPa NW 8 km/h 19.3 km/h 92 % 0 mm
11:08 3.6 °C 2.3 °C 1019.5 hPa WNW 14.5 km/h 22.5 km/h 91 % 0 mm
11:13 3.7 °C 2.2 °C 1019.9 hPa NNW 4.8 km/h 22.5 km/h 90 % 0 mm
11:18 3.8 °C 2.3 °C 1019.5 hPa North 4.8 km/h 22.5 km/h 90 % 0 mm
11:23 3.9 °C 2.3 °C 1019.9 hPa NNW 3.2 km/h 20.9 km/h 89 % 0 mm
11:28 3.9 °C 2.1 °C 1019.9 hPa WSW 9.7 km/h 17.7 km/h 88 % 0 mm
11:33 3.7 °C 1.9 °C 1019.9 hPa North 12.9 km/h 17.7 km/h 88 % 0 mm
11:38 3.7 °C 2.1 °C 1019.9 hPa NNW 8 km/h 20.9 km/h 89 % 0 mm
11:43 3.7 °C 1.9 °C 1019.9 hPa WNW 4.8 km/h 20.9 km/h 88 % 0 mm
11:48 3.8 °C 2.2 °C 1019.9 hPa NW 8 km/h 20.9 km/h 89 % 0 mm
11:53 3.9 °C 1.9 °C 1019.9 hPa WNW 9.7 km/h 22.5 km/h 87 % 0 mm
11:58 3.9 °C 1.9 °C 1019.5 hPa NW 12.9 km/h 22.5 km/h 87 % 0 mm
12:03 3.9 °C 1.9 °C 1019.5 hPa North 9.7 km/h 22.5 km/h 87 % 0 mm
12:08 4.1 °C 2.1 °C 1019.5 hPa NNW 8 km/h 19.3 km/h 87 % 0 mm
12:13 4.2 °C 2.2 °C 1019.5 hPa NNW 4.8 km/h 19.3 km/h 87 % 0 mm
12:18 4.1 °C 2 °C 1019.5 hPa NNW 11.3 km/h 19.3 km/h 86 % 0 mm
12:23 3.9 °C 1.8 °C 1019.5 hPa WNW 12.9 km/h 19.3 km/h 86 % 0 mm
12:28 3.9 °C 1.8 °C 1019.5 hPa NNW 8 km/h 24.1 km/h 86 % 0 mm
12:33 3.9 °C 1.8 °C 1019.5 hPa NW 4.8 km/h 25.7 km/h 86 % 0 mm
12:38 4.1 °C 1.8 °C 1019.5 hPa NNW 8 km/h 25.7 km/h 85 % 0 mm
12:43 4.2 °C 1.9 °C 1019.5 hPa WNW 6.4 km/h 25.7 km/h 85 % 0 mm
12:48 4.2 °C 1.9 °C 1019.5 hPa NW 6.4 km/h 20.9 km/h 85 % 0 mm
12:53 4.2 °C 1.9 °C 1019.5 hPa West 9.7 km/h 19.3 km/h 85 % 0 mm
12:58 4.1 °C 1.8 °C 1019.5 hPa NW 11.3 km/h 19.3 km/h 85 % 0 mm
13:03 4.1 °C 1.8 °C 1019.5 hPa NW 12.9 km/h 22.5 km/h 85 % 0 mm
13:08 4.1 °C 1.8 °C 1019.2 hPa NW 8 km/h 25.7 km/h 85 % 0 mm
13:13 4 °C 1.7 °C 1019.2 hPa NNW 6.4 km/h 25.7 km/h 85 % 0 mm
13:18 4 °C 1.7 °C 1019.2 hPa NW 6.4 km/h 25.7 km/h 85 % 0 mm
13:23 3.9 °C 1.6 °C 1018.8 hPa NW 3.2 km/h 20.9 km/h 85 % 0 mm
13:28 3.8 °C 1.5 °C 1018.8 hPa NW 12.9 km/h 20.9 km/h 85 % 0 mm
13:33 3.6 °C 1.5 °C 1018.8 hPa NW 9.7 km/h 22.5 km/h 86 % 0 mm
13:38 3.5 °C 1.4 °C 1018.8 hPa NNW 6.4 km/h 22.5 km/h 86 % 0 mm
13:43 3.7 °C 1.7 °C 1018.8 hPa NNW 8 km/h 22.5 km/h 87 % 0 mm
13:48 3.6 °C 1.3 °C 1019.2 hPa NW 6.4 km/h 20.9 km/h 85 % 0 mm
13:53 3.6 °C 1.2 °C 1018.8 hPa WSW 6.4 km/h 20.9 km/h 84 % 0 mm
13:58 3.5 °C 1.2 °C 1019.2 hPa North 6.4 km/h 25.7 km/h 85 % 0 mm
14:03 3.6 °C 1.2 °C 1019.2 hPa WNW 19.3 km/h 25.7 km/h 84 % 0 mm
14:08 3.5 °C 1.1 °C 1019.2 hPa NNW 9.7 km/h 25.7 km/h 84 % 0 mm
14:13 3.5 °C 1.1 °C 1019.2 hPa NW 22.5 km/h 25.7 km/h 84 % 0 mm
14:18 3.4 °C 1 °C 1019.2 hPa NNW 9.7 km/h 25.7 km/h 84 % 0 mm
14:23 3.6 °C 1.2 °C 1019.2 hPa NNW 4.8 km/h 24.1 km/h 84 % 0 mm
14:28 3.6 °C 1 °C 1019.2 hPa West 6.4 km/h 24.1 km/h 83 % 0 mm
14:33 3.6 °C 1 °C 1019.5 hPa NW 6.4 km/h 27.4 km/h 83 % 0 mm
14:38 3.6 °C 1 °C 1019.5 hPa North 11.3 km/h 27.4 km/h 83 % 0 mm
14:43 3.5 °C 0.7 °C 1019.5 hPa NW 11.3 km/h 27.4 km/h 82 % 0 mm
14:48 3.5 °C 0.7 °C 1019.5 hPa WNW 11.3 km/h 19.3 km/h 82 % 0 mm
14:53 3.4 °C 0.6 °C 1019.9 hPa NNW 11.3 km/h 24.1 km/h 82 % 0 mm
14:59 3.4 °C 0.6 °C 1019.9 hPa North 12.9 km/h 24.1 km/h 82 % 0 mm
15:04 3.5 °C 0.5 °C 1019.9 hPa NW 12.9 km/h 24.1 km/h 81 % 0 mm
15:09 3.6 °C 0.6 °C 1019.9 hPa NNE 14.5 km/h 22.5 km/h 81 % 0 mm
15:14 3.6 °C 0.5 °C 1019.9 hPa NW 8 km/h 22.5 km/h 80 % 0 mm
15:19 3.7 °C 0.6 °C 1019.9 hPa WNW 14.5 km/h 22.5 km/h 80 % 0 mm
15:24 3.7 °C 0.6 °C 1020.2 hPa NNW 11.3 km/h 20.9 km/h 80 % 0 mm
15:29 3.8 °C 0.7 °C 1020.2 hPa NNW 3.2 km/h 20.9 km/h 80 % 0 mm
15:34 3.8 °C 0.5 °C 1020.2 hPa NNW 11.3 km/h 22.5 km/h 79 % 0 mm
15:39 3.8 °C 0.5 °C 1020.2 hPa NW 9.7 km/h 22.5 km/h 79 % 0 mm
15:44 3.8 °C 0.5 °C 1020.2 hPa NW 6.4 km/h 22.5 km/h 79 % 0 mm
15:49 3.8 °C 0.5 °C 1020.2 hPa NNE 12.9 km/h 20.9 km/h 79 % 0 mm
15:54 3.7 °C 0.4 °C 1020.2 hPa NW 6.4 km/h 24.1 km/h 79 % 0 mm
15:59 3.7 °C 0.4 °C 1019.9 hPa WNW 9.7 km/h 24.1 km/h 79 % 0 mm
16:04 3.8 °C 0.5 °C 1019.9 hPa North 14.5 km/h 24.1 km/h 79 % 0 mm
16:09 3.7 °C 0.4 °C 1019.9 hPa North 14.5 km/h 19.3 km/h 79 % 0 mm
16:14 3.6 °C 0.5 °C 1019.5 hPa NNW 16.1 km/h 19.3 km/h 80 % 0 mm
16:19 3.6 °C 0.5 °C 1019.9 hPa NNW 4.8 km/h 20.9 km/h 80 % 0 mm
16:24 3.6 °C 0.5 °C 1019.9 hPa NW 6.4 km/h 20.9 km/h 80 % 0 mm
16:29 3.6 °C 0.5 °C 1019.9 hPa NW 11.3 km/h 20.9 km/h 80 % 0 mm
16:34 3.6 °C 0.3 °C 1020.2 hPa West 12.9 km/h 19.3 km/h 79 % 0 mm
16:39 3.7 °C 0.6 °C 1020.2 hPa NW 8 km/h 19.3 km/h 80 % 0 mm
16:44 3.8 °C 0.5 °C 1020.2 hPa North 8 km/h 19.3 km/h 79 % 0 mm
16:49 3.8 °C 0.3 °C 1020.5 hPa NNW 3.2 km/h 17.7 km/h 78 % 0 mm
16:54 3.8 °C 0.3 °C 1020.5 hPa NNW 11.3 km/h 20.9 km/h 78 % 0 mm
16:59 3.8 °C 0.3 °C 1020.5 hPa NW 8 km/h 20.9 km/h 78 % 0 mm
17:04 3.8 °C 0.3 °C 1020.5 hPa NW 9.7 km/h 24.1 km/h 78 % 0 mm
17:09 3.8 °C 0.3 °C 1020.5 hPa WNW 8 km/h 24.1 km/h 78 % 0 mm
17:14 3.7 °C 0.2 °C 1020.5 hPa NW 9.7 km/h 24.1 km/h 78 % 0 mm
17:19 3.8 °C 0.3 °C 1020.2 hPa NW 6.4 km/h 22.5 km/h 78 % 0 mm
17:24 3.8 °C 0.3 °C 1020.2 hPa NW 6.4 km/h 22.5 km/h 78 % 0 mm
17:29 3.8 °C 0.3 °C 1020.5 hPa WNW 11.3 km/h 24.1 km/h 78 % 0 mm
17:34 3.7 °C 0 °C 1020.5 hPa NW 16.1 km/h 24.1 km/h 77 % 0 mm
17:39 3.7 °C 0.2 °C 1020.9 hPa NW 8 km/h 24.1 km/h 78 % 0 mm
17:44 3.7 °C 0.2 °C 1020.9 hPa NW 8 km/h 22.5 km/h 78 % 0 mm
17:49 3.7 °C 0.2 °C 1021.2 hPa NNW 11.3 km/h 20.9 km/h 78 % 0 mm
17:54 3.7 °C 0.2 °C 1020.9 hPa NW 8 km/h 20.9 km/h 78 % 0 mm
17:59 3.7 °C 0.2 °C 1020.9 hPa NNW 6.4 km/h 20.9 km/h 78 % 0 mm
18:04 3.7 °C 0.2 °C 1020.9 hPa NW 6.4 km/h 20.9 km/h 78 % 0 mm
18:09 3.8 °C 0.3 °C 1021.2 hPa NW 6.4 km/h 20.9 km/h 78 % 0 mm
18:14 3.8 °C 0.3 °C 1021.6 hPa NW 8 km/h 20.9 km/h 78 % 0 mm
18:19 3.8 °C 0.3 °C 1021.6 hPa NNW 4.8 km/h 17.7 km/h 78 % 0 mm
18:24 3.8 °C 0.3 °C 1021.6 hPa NW 8 km/h 17.7 km/h 78 % 0 mm
18:29 3.8 °C 0.3 °C 1021.6 hPa North 4.8 km/h 20.9 km/h 78 % 0 mm
18:34 3.8 °C 0.3 °C 1021.9 hPa NW 6.4 km/h 20.9 km/h 78 % 0 mm
18:39 3.8 °C 0.3 °C 1021.9 hPa NNW 8 km/h 20.9 km/h 78 % 0 mm
18:44 3.8 °C 0.5 °C 1021.9 hPa NNW 6.4 km/h 17.7 km/h 79 % 0 mm
18:49 3.8 °C 0.5 °C 1021.9 hPa North 9.7 km/h 17.7 km/h 79 % 0 mm
18:54 3.8 °C 0.5 °C 1022.2 hPa NNW 4.8 km/h 19.3 km/h 79 % 0 mm
18:59 3.8 °C 0.5 °C 1022.2 hPa NNW 9.7 km/h 19.3 km/h 79 % 0 mm
19:04 3.8 °C 0.7 °C 1022.2 hPa North 8 km/h 19.3 km/h 80 % 0 mm
19:09 3.8 °C 0.5 °C 1022.6 hPa NNW 6.4 km/h 19.3 km/h 79 % 0 mm
19:14 3.7 °C 0.4 °C 1022.6 hPa North 8 km/h 14.5 km/h 79 % 0 mm
19:19 3.6 °C 0.5 °C 1022.6 hPa NW 6.4 km/h 12.9 km/h 80 % 0 mm
19:24 3.5 °C 0.4 °C 1022.6 hPa WNW 1.6 km/h 16.1 km/h 80 % 0 mm
19:29 3.4 °C 0.3 °C 1022.9 hPa North 11.3 km/h 16.1 km/h 80 % 0 mm
19:34 3.4 °C 0.3 °C 1022.9 hPa NW 3.2 km/h 16.1 km/h 80 % 0 mm
19:39 3.3 °C 0.2 °C 1022.9 hPa NW 11.3 km/h 16.1 km/h 80 % 0 mm
19:44 3.3 °C 0.4 °C 1022.9 hPa NNW 6.4 km/h 19.3 km/h 81 % 0 mm
19:49 3.3 °C 0.4 °C 1022.9 hPa NW 8 km/h 19.3 km/h 81 % 0 mm
19:54 3.2 °C 0.3 °C 1023.2 hPa NW 4.8 km/h 19.3 km/h 81 % 0 mm
19:59 3.2 °C 0.3 °C 1023.2 hPa North 16.1 km/h 16.1 km/h 81 % 0 mm
20:04 3.2 °C 0.3 °C 1023.2 hPa NNW 4.8 km/h 24.1 km/h 81 % 0 mm
20:09 3.2 °C 0.4 °C 1023.2 hPa WNW 6.4 km/h 24.1 km/h 82 % 0 mm
20:14 3.2 °C 0.4 °C 1023.6 hPa NW 9.7 km/h 24.1 km/h 82 % 0 mm
20:19 3.2 °C 0.4 °C 1023.6 hPa WNW 4.8 km/h 17.7 km/h 82 % 0 mm
20:24 3.2 °C 0.6 °C 1023.6 hPa NNW 9.7 km/h 16.1 km/h 83 % 0 mm
20:29 3.1 °C 0.3 °C 1023.6 hPa NNW 12.9 km/h 16.1 km/h 82 % 0 mm
20:34 3 °C 0.2 °C 1023.9 hPa NW 6.4 km/h 17.7 km/h 82 % 0 mm
20:39 3 °C 0.4 °C 1023.6 hPa NNW 4.8 km/h 17.7 km/h 83 % 0 mm
20:44 3 °C 0.4 °C 1023.6 hPa NNE 12.9 km/h 17.7 km/h 83 % 0 mm
20:49 3.1 °C 0.5 °C 1023.2 hPa North 11.3 km/h 16.1 km/h 83 % 0 mm
20:54 3.1 °C 0.5 °C 1023.2 hPa North 3.2 km/h 16.1 km/h 83 % 0 mm
20:59 3.1 °C 0.5 °C 1023.6 hPa NW 1.6 km/h 16.1 km/h 83 % 0 mm
21:04 3.1 °C 0.5 °C 1023.9 hPa NNW 3.2 km/h 16.1 km/h 83 % 0 mm
21:09 3.1 °C 0.5 °C 1024.3 hPa NW 6.4 km/h 16.1 km/h 83 % 0 mm
21:14 3 °C 0.4 °C 1024.3 hPa NNW 9.7 km/h 9.7 km/h 83 % 0 mm
21:19 2.9 °C 0.3 °C 1023.9 hPa WNW 4.8 km/h 12.9 km/h 83 % 0 mm
21:24 2.9 °C 0.3 °C 1023.9 hPa NNE 8 km/h 12.9 km/h 83 % 0 mm
21:29 2.9 °C 0.3 °C 1023.9 hPa NW 11.3 km/h 16.1 km/h 83 % 0 mm
21:34 2.9 °C 0.3 °C 1024.3 hPa NNW 9.7 km/h 16.1 km/h 83 % 0 mm
21:39 2.9 °C 0.5 °C 1024.3 hPa NW 9.7 km/h 16.1 km/h 84 % 0 mm
21:44 2.9 °C 0.5 °C 1024.3 hPa NNW 4.8 km/h 16.1 km/h 84 % 0 mm
21:49 2.8 °C 0.4 °C 1024.3 hPa NNW 3.2 km/h 12.9 km/h 84 % 0 mm
21:54 2.8 °C 0.2 °C 1024.3 hPa North 4.8 km/h 12.9 km/h 83 % 0 mm
21:59 2.8 °C 0.2 °C 1024.3 hPa NNW 6.4 km/h 14.5 km/h 83 % 0 mm
22:04 2.8 °C 0.4 °C 1023.9 hPa NNW 3.2 km/h 16.1 km/h 84 % 0 mm
22:09 2.8 °C 0.4 °C 1023.9 hPa NW 8 km/h 16.1 km/h 84 % 0 mm
22:15 2.8 °C 0.4 °C 1024.3 hPa NW 6.4 km/h 16.1 km/h 84 % 0 mm
22:19 2.8 °C 0.4 °C 1024.3 hPa NW 8 km/h 16.1 km/h 84 % 0 mm
22:24 2.7 °C 0.3 °C 1024.3 hPa NNW 3.2 km/h 12.9 km/h 84 % 0 mm
22:30 2.7 °C 0.4 °C 1023.9 hPa NW 16.1 km/h 16.1 km/h 85 % 0 mm
22:35 2.7 °C 0.3 °C 1023.9 hPa NW 6.4 km/h 16.1 km/h 84 % 0 mm
22:40 2.8 °C 0.5 °C 1023.9 hPa NNW 1.6 km/h 16.1 km/h 85 % 0 mm
22:45 2.8 °C 0.5 °C 1024.3 hPa NW 1.6 km/h 16.1 km/h 85 % 0 mm
22:50 2.7 °C 0.3 °C 1024.3 hPa NNW 11.3 km/h 14.5 km/h 84 % 0 mm
22:55 2.7 °C 0.4 °C 1024.3 hPa NW 1.6 km/h 16.1 km/h 85 % 0 mm
23:00 2.7 °C 0.3 °C 1024.3 hPa NW 3.2 km/h 16.1 km/h 84 % 0 mm
23:05 2.7 °C 0.3 °C 1024.3 hPa North 8 km/h 16.1 km/h 84 % 0 mm
23:10 2.7 °C 0.3 °C 1024.3 hPa NW 3.2 km/h 14.5 km/h 84 % 0 mm
23:15 2.7 °C 0.3 °C 1024.6 hPa NW 3.2 km/h 16.1 km/h 84 % 0 mm
23:20 2.6 °C 0.2 °C 1024.6 hPa NNW 3.2 km/h 16.1 km/h 84 % 0 mm
23:25 2.7 °C 0.3 °C 1024.9 hPa NE 4.8 km/h 14.5 km/h 84 % 0 mm
23:30 2.7 °C 0.3 °C 1024.9 hPa Calm   14.5 km/h 84 % 0 mm
23:35 2.7 °C 0.3 °C 1024.9 hPa NNW 6.4 km/h 12.9 km/h 84 % 0 mm
23:40 2.7 °C 0.3 °C 1024.9 hPa North 8 km/h 12.9 km/h 84 % 0 mm
23:45 2.7 °C 0.3 °C 1024.9 hPa NW 3.2 km/h 12.9 km/h 84 % 0 mm
23:50 2.7 °C 0.3 °C 1025.3 hPa NNW 3.2 km/h 12.9 km/h 84 % 0 mm
23:55 2.7 °C 0.3 °C 1025.3 hPa NW 6.4 km/h 11.3 km/h 84 % 0 mm
Spring, Texas: Villages of Bridgestone
Compliments of Weather Underground - 2.75 mb

Script developed by  Jim McMurry - jmcmurry@mwt.net Adapted for the template by  Wim van der Kuil - Leuven-Template.eu

You find our weather info also at:

UK Metoffice

WeatherCloud

Weather Underground

Mid-South Weather Network

AWEKAS

Citizen Weather Observer Program (CWOP)

HAMweather, WeatherForYou, PWS Weather

Equipment we use:

Weather-station
Davis Vantage Vue

Weather-program
Meteohub

Weather-server
Debian 7.9 x86 (Guest)

Provider
DreamHost

Davis Vantage Vue

Meteohub

Debian 7.9 x86 (Guest)

DreamHost